Accueil
METAR-TAF:

METAR-TAF

Aéroports :

Bauru, São Paulo, Brésil

latitude: 22-19S, longitude: 049-04W, altitude: 590 m

Observation

Le bulletin a été fait il y a 1 heure et 45 minutes, à 00:00 UTC
Vent 5 kt de est
Température 18°C
Humidité 88%
Pression 1022 hPa
Visibilité 10 km ou plus
pas de nuages en-dessous de 1500 mètres et pas de cumulonimbus.

METAR: SBBU 290000Z 08005KT CAVOK 18/16 Q1022

Heure: 22:45 (01:45 UTC)

Prévision

Le bulletin a été fait il y a 4 heures et 45 minutes, à 21:00 UTC
Prévision valable du 29 à 00 UTC au 29 à 12 UTC
Vent 10 kt de est
Visibilité 10 km ou plus
pas de nuages en-dessous de 1500 mètres et pas de cumulonimbus.
Probabilité 40%
du 29 à 06 UTC au 29 à 10 UTC
Visibilité: 3000 m
Nuages fragmentés à une hauteur de 400 ft
bancs de brouillard

TAF: SBBU 282100Z 2900/2912 08010KT CAVOK TX19/2900Z TN15/2909Z PROB40 2906/2910 3000 BCFG BKN004 RMK PDJ

Observations et prévisions météorologiques de plus de 4000 aéroports (messages METAR et TAF).

Les stations disponibles sont représentées par des disques jaunes et rouges sur la carte.

Passer la souris dessus pour voir le nom de la station.

Cliquer dessus pour voir les observations et prévisions météorologiques.

Pour changer de carte: cliquez sur les boutons verts avec une croix noire pour zoomer, sur le bouton vert avec un tiret pour effectuer un zoom arrière, ou sur les flèches vertes pour les cartes adjacentes.


METAR-TAF: